Time;durP1;ratioP1;P1;durP2;ratioP2;P2;SDS_P1;SDS_P2;PMS_P1;PMS_P2;Temp;Humidity;BMP_temperature;BMP_pressure;BME280_temperature;BME280_humidity;BME280_pressure;Samples;Min_cycle;Max_cycle;Signal;HPM_P1;HPM_P2
2023/01/31 00:00:25;;;;;;;9.65;4.90;;;;;;;;;;8298216;28;20046;-93
2023/01/31 00:04:48;;;;;;;10.18;5.20;;;;;;;;;;8297818;28;20050;-90
2023/01/31 00:08:52;;;;;;;8.88;5.97;;;;;;;;;;8303054;28;20068;-90
2023/01/31 00:12:54;;;;;;;11.05;5.72;;;;;;;;;;8286506;28;20046;-91
2023/01/31 00:16:59;;;;;;;8.50;5.32;;;;;;;;;;8297298;28;20120;-91
2023/01/31 00:21:07;;;;;;;11.63;5.15;;;;;;;;;;8303432;28;20054;-91
2023/01/31 00:25:22;;;;;;;13.20;5.05;;;;;;;;;;8304560;28;20045;-91
2023/01/31 00:29:26;;;;;;;9.75;5.32;;;;;;;;;;8304505;28;20092;-91
2023/01/31 00:33:30;;;;;;;10.45;5.22;;;;;;;;;;8304062;28;20058;-91
2023/01/31 00:37:33;;;;;;;11.07;5.35;;;;;;;;;;8300424;28;20133;-91
2023/01/31 00:41:38;;;;;;;13.35;5.90;;;;;;;;;;8311230;28;20148;-91
2023/01/31 00:45:41;;;;;;;6.93;4.30;;;;;;;;;;8332308;28;20053;-89
2023/01/31 00:49:52;;;;;;;14.32;5.68;;;;;;;;;;8327580;28;20046;-90
2023/01/31 00:53:58;;;;;;;10.57;5.55;;;;;;;;;;8315236;28;20120;-92
2023/01/31 00:58:01;;;;;;;8.75;4.93;;;;;;;;;;8304105;28;20112;-91
2023/01/31 01:02:04;;;;;;;13.52;6.20;;;;;;;;;;8303599;28;20180;-90
2023/01/31 01:06:09;;;;;;;17.10;5.43;;;;;;;;;;8303275;28;20137;-91
2023/01/31 01:10:13;;;;;;;7.07;4.20;;;;;;;;;;8303321;28;20129;-91
2023/01/31 01:14:16;;;;;;;12.40;5.07;;;;;;;;;;8303140;28;20129;-89
2023/01/31 01:18:19;;;;;;;9.45;3.90;;;;;;;;;;8302162;28;20046;-91
2023/01/31 01:22:23;;;;;;;6.85;4.13;;;;;;;;;;8302769;28;20161;-89
2023/01/31 01:26:28;;;;;;;9.10;4.68;;;;;;;;;;8302957;28;20143;-92
2023/01/31 01:30:31;;;;;;;8.13;4.40;;;;;;;;;;8302593;28;20046;-91
2023/01/31 01:34:36;;;;;;;8.77;4.90;;;;;;;;;;8301247;28;20054;-90
2023/01/31 01:38:41;;;;;;;9.95;4.78;;;;;;;;;;8289189;28;20038;-90
2023/01/31 01:47:01;;;;;;;12.77;5.72;;;;;;;;;;8288588;28;20073;-89
2023/01/31 01:51:06;;;;;;;12.70;5.60;;;;;;;;;;8301766;28;20050;-89
2023/01/31 01:55:19;;;;;;;8.27;4.85;;;;;;;;;;8282871;28;20046;-91
2023/01/31 01:59:26;;;;;;;5.72;2.95;;;;;;;;;;8296767;28;20448;-90
2023/01/31 02:03:29;;;;;;;14.02;5.30;;;;;;;;;;8301555;28;20050;-91
2023/01/31 02:07:32;;;;;;;8.82;5.13;;;;;;;;;;8301641;28;20099;-89
2023/01/31 02:11:37;;;;;;;16.35;4.40;;;;;;;;;;8301276;28;20123;-89
2023/01/31 02:15:39;;;;;;;4.90;3.38;;;;;;;;;;8287826;28;20125;-90
2023/01/31 02:19:50;;;;;;;10.52;5.25;;;;;;;;;;8300962;28;20056;-93
2023/01/31 02:24:19;;;;;;;11.15;5.40;;;;;;;;;;8300543;28;20254;-89
2023/01/31 02:28:59;;;;;;;7.93;5.10;;;;;;;;;;8300679;28;20045;-90
2023/01/31 02:33:16;;;;;;;9.85;4.72;;;;;;;;;;8289446;28;20064;-90
2023/01/31 02:37:28;;;;;;;14.68;5.30;;;;;;;;;;8295796;28;20128;-90
2023/01/31 02:41:38;;;;;;;11.43;5.13;;;;;;;;;;8299431;28;20466;-93
2023/01/31 02:45:48;;;;;;;18.73;4.88;;;;;;;;;;8299604;28;20052;-89
2023/01/31 02:49:58;;;;;;;11.70;4.55;;;;;;;;;;8299497;28;20042;-91
2023/01/31 02:54:06;;;;;;;11.02;4.68;;;;;;;;;;8299796;28;20042;-90
2023/01/31 02:58:13;;;;;;;10.93;4.32;;;;;;;;;;8299512;28;20065;-92
2023/01/31 03:02:16;;;;;;;19.40;6.15;;;;;;;;;;8299236;28;20045;-88
2023/01/31 03:07:00;;;;;;;12.38;4.00;;;;;;;;;;8297305;28;20125;-91
2023/01/31 03:11:05;;;;;;;6.57;3.42;;;;;;;;;;8296557;28;20034;-89
2023/01/31 03:17:30;;;;;;;18.48;5.65;;;;;;;;;;8298049;28;20046;-88
2023/01/31 03:19:58;;;;;;;9.82;3.03;;;;;;;;;;8296725;28;20658;-90
2023/01/31 03:24:08;;;;;;;11.40;4.78;;;;;;;;;;8297824;28;20601;-90
2023/01/31 03:28:16;;;;;;;10.60;5.13;;;;;;;;;;8295712;28;20184;-89
2023/01/31 03:32:24;;;;;;;8.82;3.88;;;;;;;;;;8296607;28;20125;-92
2023/01/31 03:36:41;;;;;;;10.00;4.97;;;;;;;;;;8297462;28;20045;-90
2023/01/31 03:40:51;;;;;;;20.05;6.80;;;;;;;;;;8295639;28;20077;-92
2023/01/31 03:45:02;;;;;;;17.60;7.00;;;;;;;;;;8297533;28;20485;-91
2023/01/31 03:49:09;;;;;;;15.82;6.40;;;;;;;;;;8298075;28;20454;-92
2023/01/31 03:53:16;;;;;;;10.10;3.35;;;;;;;;;;8295844;28;20056;-90
2023/01/31 03:57:24;;;;;;;8.35;3.20;;;;;;;;;;8298490;28;20069;-90
2023/01/31 04:01:30;;;;;;;21.02;5.63;;;;;;;;;;8297431;28;20066;-89
2023/01/31 04:05:33;;;;;;;17.45;5.47;;;;;;;;;;8296287;28;20129;-91
2023/01/31 04:09:40;;;;;;;17.73;4.40;;;;;;;;;;8295391;28;20130;-90
2023/01/31 04:13:45;;;;;;;11.23;3.35;;;;;;;;;;8294977;28;20125;-89
2023/01/31 04:17:51;;;;;;;15.45;4.13;;;;;;;;;;8296568;28;20125;-90
2023/01/31 04:21:54;;;;;;;15.40;4.93;;;;;;;;;;8297481;28;20120;-90
2023/01/31 04:25:57;;;;;;;18.05;5.28;;;;;;;;;;8298156;28;20402;-88
2023/01/31 04:30:01;;;;;;;8.65;2.33;;;;;;;;;;8297858;28;20049;-88
2023/01/31 04:34:04;;;;;;;5.60;3.20;;;;;;;;;;8297580;28;20140;-89
2023/01/31 04:38:07;;;;;;;17.20;5.03;;;;;;;;;;8297519;28;20050;-91
2023/01/31 04:42:10;;;;;;;10.35;4.20;;;;;;;;;;8297638;28;20042;-89
2023/01/31 04:46:14;;;;;;;15.48;4.78;;;;;;;;;;8297110;28;20129;-89
2023/01/31 04:50:18;;;;;;;16.83;5.78;;;;;;;;;;8297427;28;20046;-89
2023/01/31 04:54:20;;;;;;;13.27;4.70;;;;;;;;;;8299069;28;20125;-87
2023/01/31 04:58:23;;;;;;;18.70;5.20;;;;;;;;;;8303098;28;20132;-88
2023/01/31 05:02:28;;;;;;;14.40;5.30;;;;;;;;;;8300959;28;20133;-89
2023/01/31 05:06:31;;;;;;;14.98;4.93;;;;;;;;;;8300894;28;20069;-89
2023/01/31 05:10:38;;;;;;;16.80;5.50;;;;;;;;;;8301327;28;20041;-88
2023/01/31 05:14:41;;;;;;;13.05;4.88;;;;;;;;;;8301468;28;20509;-88
2023/01/31 05:18:46;;;;;;;17.35;5.85;;;;;;;;;;8300996;28;20096;-88
2023/01/31 05:22:49;;;;;;;15.98;5.20;;;;;;;;;;8299475;28;20041;-88
2023/01/31 05:26:57;;;;;;;25.92;9.73;;;;;;;;;;8300777;28;20129;-91
2023/01/31 05:31:06;;;;;;;17.80;5.90;;;;;;;;;;8298345;28;20042;-88
2023/01/31 05:35:11;;;;;;;26.27;8.93;;;;;;;;;;8299465;28;20497;-88
2023/01/31 05:39:14;;;;;;;14.73;6.03;;;;;;;;;;8301412;28;20493;-89
2023/01/31 05:43:17;;;;;;;5.38;2.47;;;;;;;;;;8290880;28;20054;-88
2023/01/31 05:47:22;;;;;;;6.60;2.15;;;;;;;;;;8300707;28;20053;-88
2023/01/31 05:51:27;;;;;;;13.60;5.05;;;;;;;;;;8287241;28;20050;-90
2023/01/31 05:55:30;;;;;;;15.27;4.50;;;;;;;;;;8295840;28;20056;-87
2023/01/31 05:59:33;;;;;;;13.88;4.80;;;;;;;;;;8291026;28;20125;-88
2023/01/31 06:03:36;;;;;;;18.02;5.20;;;;;;;;;;8297256;28;20592;-87
2023/01/31 06:07:40;;;;;;;11.15;4.10;;;;;;;;;;8299602;28;20406;-88
2023/01/31 06:11:43;;;;;;;5.32;2.63;;;;;;;;;;8300379;28;20125;-89
2023/01/31 06:15:46;;;;;;;11.75;4.05;;;;;;;;;;8287007;28;20050;-88
2023/01/31 06:19:50;;;;;;;9.35;3.50;;;;;;;;;;8299545;28;20128;-87
2023/01/31 06:23:55;;;;;;;22.60;6.05;;;;;;;;;;8291702;28;20049;-89
2023/01/31 06:27:58;;;;;;;16.63;4.55;;;;;;;;;;8299989;28;20069;-89
2023/01/31 06:32:01;;;;;;;12.15;3.85;;;;;;;;;;8300023;28;20492;-87
2023/01/31 06:36:05;;;;;;;2.60;1.77;;;;;;;;;;8299746;28;20395;-88
2023/01/31 06:40:11;;;;;;;12.63;4.25;;;;;;;;;;8327168;28;20053;-88
2023/01/31 06:44:14;;;;;;;12.57;4.05;;;;;;;;;;8334680;28;20046;-89
2023/01/31 06:48:18;;;;;;;13.05;4.25;;;;;;;;;;8302472;28;20085;-88
2023/01/31 06:52:21;;;;;;;11.00;4.05;;;;;;;;;;8297669;28;20046;-87
2023/01/31 06:56:25;;;;;;;8.32;3.15;;;;;;;;;;8298264;28;20072;-87
2023/01/31 07:00:28;;;;;;;14.65;4.35;;;;;;;;;;8296326;28;20054;-86
2023/01/31 07:04:31;;;;;;;11.48;3.88;;;;;;;;;;8296785;28;20125;-88
2023/01/31 07:08:35;;;;;;;22.88;5.20;;;;;;;;;;8295956;28;20093;-89
2023/01/31 07:12:45;;;;;;;13.90;5.13;;;;;;;;;;8295677;28;20420;-91
2023/01/31 07:16:48;;;;;;;16.70;4.78;;;;;;;;;;8295209;28;20551;-87
2023/01/31 07:20:51;;;;;;;14.68;5.18;;;;;;;;;;8293527;28;20038;-87
2023/01/31 07:24:54;;;;;;;6.80;2.90;;;;;;;;;;8294524;28;20044;-86
2023/01/31 07:28:59;;;;;;;7.10;3.25;;;;;;;;;;8294795;28;20038;-90
2023/01/31 07:33:02;;;;;;;19.33;5.18;;;;;;;;;;8293747;28;20141;-88
2023/01/31 07:37:05;;;;;;;16.90;5.03;;;;;;;;;;8296070;28;20041;-88
2023/01/31 07:41:10;;;;;;;12.27;3.83;;;;;;;;;;8296310;28;20389;-87
2023/01/31 07:45:16;;;;;;;15.75;4.45;;;;;;;;;;8292276;28;20044;-90
2023/01/31 07:49:19;;;;;;;15.80;5.38;;;;;;;;;;8295226;28;20096;-88
2023/01/31 07:53:22;;;;;;;13.35;4.22;;;;;;;;;;8297421;28;20489;-88
2023/01/31 07:57:25;;;;;;;15.25;4.68;;;;;;;;;;8291329;28;20049;-89
2023/01/31 08:05:50;;;;;;;20.48;5.57;;;;;;;;;;8287726;28;20050;-89
2023/01/31 08:09:53;;;;;;;10.43;4.28;;;;;;;;;;8293428;28;20474;-90
2023/01/31 08:13:56;;;;;;;17.77;5.13;;;;;;;;;;8296730;28;20054;-90
2023/01/31 08:18:01;;;;;;;13.95;5.63;;;;;;;;;;8293677;28;20124;-90
2023/01/31 08:22:05;;;;;;;19.30;6.05;;;;;;;;;;8297465;28;20137;-90
2023/01/31 08:26:11;;;;;;;15.43;5.63;;;;;;;;;;8294612;28;20046;-89
2023/01/31 08:30:15;;;;;;;17.73;6.28;;;;;;;;;;8302749;28;20409;-89
2023/01/31 08:34:19;;;;;;;20.25;5.60;;;;;;;;;;8304233;28;20136;-89
2023/01/31 08:38:22;;;;;;;18.23;5.18;;;;;;;;;;8302520;28;20140;-89
2023/01/31 08:42:25;;;;;;;16.00;4.65;;;;;;;;;;8289855;28;20141;-90
2023/01/31 08:46:31;;;;;;;12.82;3.47;;;;;;;;;;8293335;28;20074;-89
2023/01/31 08:50:37;;;;;;;16.90;5.00;;;;;;;;;;8295984;28;20127;-89
2023/01/31 08:54:39;;;;;;;7.10;3.22;;;;;;;;;;8300562;28;20056;-90
2023/01/31 08:58:44;;;;;;;13.25;4.53;;;;;;;;;;8298746;28;20072;-90
2023/01/31 09:02:52;;;;;;;13.35;4.25;;;;;;;;;;8297129;28;20065;-92
2023/01/31 09:06:56;;;;;;;12.75;3.80;;;;;;;;;;8296560;28;20053;-89
2023/01/31 09:11:00;;;;;;;10.35;3.53;;;;;;;;;;8293210;28;20042;-89
2023/01/31 09:15:04;;;;;;;14.18;3.45;;;;;;;;;;8298391;28;20104;-91
2023/01/31 09:19:07;;;;;;;12.77;4.18;;;;;;;;;;8301573;28;20057;-89
2023/01/31 09:23:12;;;;;;;14.38;4.88;;;;;;;;;;8296863;28;20401;-89
2023/01/31 09:27:16;;;;;;;9.35;3.50;;;;;;;;;;8297068;28;20133;-90
2023/01/31 09:31:21;;;;;;;15.35;4.20;;;;;;;;;;8297133;28;20070;-89
2023/01/31 09:35:24;;;;;;;8.48;3.42;;;;;;;;;;8298765;28;20188;-89
2023/01/31 09:39:28;;;;;;;7.32;3.80;;;;;;;;;;8299923;28;20069;-89
2023/01/31 09:43:35;;;;;;;10.25;3.75;;;;;;;;;;8298445;28;20042;-89
2023/01/31 09:47:41;;;;;;;16.15;5.03;;;;;;;;;;8298889;28;20046;-89
2023/01/31 09:51:45;;;;;;;16.42;4.50;;;;;;;;;;8298502;28;20042;-89
2023/01/31 09:56:02;;;;;;;14.50;4.13;;;;;;;;;;8295529;28;20053;-88
2023/01/31 10:00:18;;;;;;;12.15;4.22;;;;;;;;;;8300163;28;20079;-88
2023/01/31 10:04:32;;;;;;;14.57;4.35;;;;;;;;;;8300174;28;20449;-89
2023/01/31 10:08:45;;;;;;;14.52;4.57;;;;;;;;;;8300518;28;20129;-88
2023/01/31 10:12:56;;;;;;;13.90;5.82;;;;;;;;;;8299426;28;20148;-88
2023/01/31 10:17:08;;;;;;;7.50;3.60;;;;;;;;;;8299812;28;20132;-89
2023/01/31 10:21:15;;;;;;;14.13;4.15;;;;;;;;;;8300161;28;20496;-90
2023/01/31 10:25:26;;;;;;;9.48;4.25;;;;;;;;;;8300027;28;20077;-87
2023/01/31 10:29:35;;;;;;;10.68;4.55;;;;;;;;;;8299905;28;20508;-88
2023/01/31 10:33:48;;;;;;;7.22;3.13;;;;;;;;;;8300101;28;20569;-90
2023/01/31 10:37:55;;;;;;;16.77;4.60;;;;;;;;;;8299730;28;20077;-88
2023/01/31 10:42:08;;;;;;;11.07;3.90;;;;;;;;;;8297836;28;20120;-89
2023/01/31 10:46:14;;;;;;;9.65;3.90;;;;;;;;;;8297027;28;20537;-87
2023/01/31 10:50:19;;;;;;;14.05;4.03;;;;;;;;;;8295698;28;20041;-89
2023/01/31 10:54:35;;;;;;;17.95;5.97;;;;;;;;;;8296492;28;20037;-88
2023/01/31 10:58:39;;;;;;;15.07;5.78;;;;;;;;;;8298869;28;20053;-89
2023/01/31 11:02:44;;;;;;;8.95;4.43;;;;;;;;;;8295273;28;20096;-89
2023/01/31 11:06:47;;;;;;;15.30;5.45;;;;;;;;;;8297103;28;20050;-89
2023/01/31 11:10:55;;;;;;;15.10;4.72;;;;;;;;;;8296349;28;20065;-88
2023/01/31 11:15:07;;;;;;;13.05;5.10;;;;;;;;;;8283935;28;20457;-88
2023/01/31 11:19:21;;;;;;;12.30;3.95;;;;;;;;;;8296999;28;20125;-88
2023/01/31 11:23:28;;;;;;;15.90;4.88;;;;;;;;;;8298366;28;20052;-87
2023/01/31 11:27:37;;;;;;;8.98;3.17;;;;;;;;;;8297206;28;20480;-88
2023/01/31 11:31:44;;;;;;;10.75;4.55;;;;;;;;;;8297861;28;20132;-87
2023/01/31 11:35:52;;;;;;;13.57;5.07;;;;;;;;;;8297514;28;20118;-87
2023/01/31 11:39:57;;;;;;;12.23;5.45;;;;;;;;;;8298189;28;20049;-85
2023/01/31 11:44:16;;;;;;;8.52;4.57;;;;;;;;;;8297928;28;20107;-88
2023/01/31 11:48:24;;;;;;;11.02;4.78;;;;;;;;;;8297450;28;20052;-88
2023/01/31 11:52:32;;;;;;;12.43;4.93;;;;;;;;;;8298135;28;20053;-88
2023/01/31 11:56:37;;;;;;;17.33;6.05;;;;;;;;;;8298128;28;20077;-88
2023/01/31 12:00:51;;;;;;;10.05;4.53;;;;;;;;;;8298119;28;20474;-90
2023/01/31 12:04:55;;;;;;;14.95;5.13;;;;;;;;;;8302810;28;20046;-91
2023/01/31 12:09:01;;;;;;;14.02;5.30;;;;;;;;;;8303968;28;20053;-89
2023/01/31 12:13:14;;;;;;;12.50;5.25;;;;;;;;;;8304673;28;20113;-88
2023/01/31 12:17:21;;;;;;;17.88;5.22;;;;;;;;;;8326327;28;20029;-88
2023/01/31 12:21:39;;;;;;;7.10;3.63;;;;;;;;;;8329630;28;20042;-90
2023/01/31 12:25:56;;;;;;;13.05;5.00;;;;;;;;;;8304492;28;20092;-88
2023/01/31 12:30:16;;;;;;;13.60;4.75;;;;;;;;;;8302872;28;20117;-90
2023/01/31 12:34:32;;;;;;;11.45;4.50;;;;;;;;;;8295990;28;20045;-91
2023/01/31 12:39:14;;;;;;;10.30;4.20;;;;;;;;;;8303056;28;20037;-91
2023/01/31 12:43:41;;;;;;;8.90;3.70;;;;;;;;;;8302564;28;20441;-91
2023/01/31 12:48:14;;;;;;;13.80;5.72;;;;;;;;;;8304613;28;20070;-89
2023/01/31 12:52:23;;;;;;;11.48;4.53;;;;;;;;;;8302336;28;20066;-90
2023/01/31 12:56:54;;;;;;;10.25;4.28;;;;;;;;;;8301796;28;20387;-90
2023/01/31 13:01:04;;;;;;;11.05;4.47;;;;;;;;;;8301301;28;20042;-90
2023/01/31 13:05:24;;;;;;;13.15;4.57;;;;;;;;;;8298689;28;20140;-90
2023/01/31 13:09:30;;;;;;;18.42;5.20;;;;;;;;;;8300220;28;20104;-91
2023/01/31 13:13:40;;;;;;;12.80;3.60;;;;;;;;;;8297263;28;20049;-90
2023/01/31 13:17:46;;;;;;;15.75;4.10;;;;;;;;;;8300883;28;20064;-91
2023/01/31 13:21:52;;;;;;;12.18;4.97;;;;;;;;;;8301318;28;20053;-91
2023/01/31 13:26:02;;;;;;;12.25;5.90;;;;;;;;;;8305589;22;20065;-89
2023/01/31 13:30:20;;;;;;;13.93;4.78;;;;;;;;;;8298251;28;20050;-93
2023/01/31 13:34:33;;;;;;;12.10;4.72;;;;;;;;;;8268887;28;20054;-90
2023/01/31 13:38:41;;;;;;;10.73;4.07;;;;;;;;;;8298596;28;20042;-89
2023/01/31 13:42:44;;;;;;;15.60;6.53;;;;;;;;;;8286951;28;20050;-90
2023/01/31 13:46:51;;;;;;;14.35;5.20;;;;;;;;;;8301646;28;20042;-91
2023/01/31 13:51:01;;;;;;;15.48;5.38;;;;;;;;;;8302108;28;20072;-88
2023/01/31 13:55:10;;;;;;;2.58;1.92;;;;;;;;;;8281552;28;20556;-88
2023/01/31 13:59:21;;;;;;;15.30;6.55;;;;;;;;;;8295069;28;20482;-89
2023/01/31 14:03:25;;;;;;;12.80;5.40;;;;;;;;;;8299121;28;20081;-90
2023/01/31 14:07:30;;;;;;;26.67;9.48;;;;;;;;;;8288481;28;20038;-89
2023/01/31 14:11:35;;;;;;;17.05;5.78;;;;;;;;;;8292811;28;20046;-91
2023/01/31 14:15:48;;;;;;;16.27;6.20;;;;;;;;;;8287214;28;20096;-91
2023/01/31 14:20:26;;;;;;;25.48;8.43;;;;;;;;;;8308127;28;21687;-93
2023/01/31 14:25:06;;;;;;;29.83;9.23;;;;;;;;;;8264084;28;20042;-88
2023/01/31 14:29:09;;;;;;;24.25;10.90;;;;;;;;;;8290186;28;20100;-90
2023/01/31 14:33:28;;;;;;;24.95;8.93;;;;;;;;;;8300111;28;20053;-87
2023/01/31 14:37:39;;;;;;;27.25;9.60;;;;;;;;;;8294057;28;20050;-87
2023/01/31 14:42:01;;;;;;;19.85;6.88;;;;;;;;;;8299387;28;20042;-90
2023/01/31 14:46:50;;;;;;;28.90;11.00;;;;;;;;;;8290556;28;20490;-91
2023/01/31 14:51:14;;;;;;;22.98;9.48;;;;;;;;;;8229263;28;20062;-90
2023/01/31 14:55:43;;;;;;;20.63;9.65;;;;;;;;;;8285307;28;20053;-90
2023/01/31 14:59:55;;;;;;;18.60;9.13;;;;;;;;;;8282578;28;20389;-92
2023/01/31 15:03:59;;;;;;;23.38;10.75;;;;;;;;;;8286078;28;20046;-89
2023/01/31 15:08:06;;;;;;;38.97;16.83;;;;;;;;;;8298187;28;20563;-91
2023/01/31 15:12:41;;;;;;;35.33;14.68;;;;;;;;;;8299108;28;20506;-89
2023/01/31 15:16:57;;;;;;;;;;;;;;;;;;8291054;28;20546;-92
2023/01/31 15:21:04;;;;;;;15.25;7.53;;;;;;;;;;8280286;28;20016;-88
2023/01/31 15:25:19;;;;;;;18.73;7.90;;;;;;;;;;8311434;28;20064;-93
2023/01/31 15:29:26;;;;;;;24.98;9.82;;;;;;;;;;8287592;28;20105;-89
2023/01/31 15:33:34;;;;;;;20.65;7.10;;;;;;;;;;8299254;28;20126;-92
2023/01/31 15:37:40;;;;;;;23.00;7.78;;;;;;;;;;8297475;28;20053;-88
2023/01/31 15:41:44;;;;;;;23.23;8.75;;;;;;;;;;8297997;28;20129;-89
2023/01/31 15:45:50;;;;;;;19.45;8.00;;;;;;;;;;8297047;28;20375;-89
2023/01/31 15:49:55;;;;;;;18.88;7.38;;;;;;;;;;8296403;28;20056;-91
2023/01/31 15:54:04;;;;;;;24.23;7.20;;;;;;;;;;8281782;28;20379;-91
2023/01/31 15:58:14;;;;;;;16.10;7.45;;;;;;;;;;8292065;28;20042;-90
2023/01/31 16:02:27;;;;;;;20.38;6.80;;;;;;;;;;8261781;28;20050;-88
2023/01/31 16:06:34;;;;;;;26.55;8.07;;;;;;;;;;8279155;28;20052;-89
2023/01/31 16:10:38;;;;;;;23.77;8.93;;;;;;;;;;8289779;28;20042;-90
2023/01/31 16:14:45;;;;;;;19.73;7.95;;;;;;;;;;8280991;28;20093;-90
2023/01/31 16:18:53;;;;;;;15.15;7.40;;;;;;;;;;8289369;28;20053;-90
2023/01/31 16:22:57;;;;;;;30.75;10.50;;;;;;;;;;8285581;28;20042;-90
2023/01/31 16:27:06;;;;;;;26.38;9.35;;;;;;;;;;8287169;28;20057;-92
2023/01/31 16:31:14;;;;;;;30.40;11.45;;;;;;;;;;8282938;28;20049;-88
2023/01/31 16:35:23;;;;;;;30.50;11.15;;;;;;;;;;8292525;28;20104;-90
2023/01/31 16:39:38;;;;;;;22.17;9.75;;;;;;;;;;8289608;28;20050;-91
2023/01/31 16:43:43;;;;;;;27.77;11.13;;;;;;;;;;8277509;28;20066;-92
2023/01/31 16:47:54;;;;;;;36.20;15.55;;;;;;;;;;8255367;28;20129;-95
2023/01/31 16:52:11;;;;;;;31.25;9.63;;;;;;;;;;8270151;28;20107;-91
2023/01/31 16:56:25;;;;;;;35.90;11.80;;;;;;;;;;8279822;28;20051;-93
2023/01/31 17:00:38;;;;;;;21.02;8.32;;;;;;;;;;8285747;28;20461;-96
2023/01/31 17:04:44;;;;;;;39.65;12.52;;;;;;;;;;8283542;28;20053;-89
2023/01/31 17:08:48;;;;;;;31.52;14.60;;;;;;;;;;8301718;28;20057;-93
2023/01/31 17:12:57;;;;;;;44.58;16.02;;;;;;;;;;8284528;28;20049;-94
2023/01/31 17:17:01;;;;;;;29.05;11.13;;;;;;;;;;8279067;28;20487;-90
2023/01/31 17:21:06;;;;;;;32.85;10.88;;;;;;;;;;8294626;28;20041;-91
2023/01/31 17:25:17;;;;;;;21.30;7.82;;;;;;;;;;8293602;28;20052;-91
2023/01/31 17:29:24;;;;;;;26.40;7.03;;;;;;;;;;8281619;28;20421;-89
2023/01/31 17:33:29;;;;;;;31.95;12.82;;;;;;;;;;8292977;28;20042;-90
2023/01/31 17:37:33;;;;;;;25.80;8.93;;;;;;;;;;8298790;28;20056;-91
2023/01/31 17:41:39;;;;;;;14.68;4.82;;;;;;;;;;8287103;28;20046;-90
2023/01/31 17:45:46;;;;;;;60.17;10.38;;;;;;;;;;8321484;28;20042;-90
2023/01/31 17:49:53;;;;;;;15.02;6.90;;;;;;;;;;8340682;28;20029;-88
2023/01/31 17:53:59;;;;;;;13.75;7.07;;;;;;;;;;8322612;28;20057;-90
2023/01/31 17:58:03;;;;;;;18.23;8.93;;;;;;;;;;8278359;28;20092;-89
2023/01/31 18:02:11;;;;;;;21.42;9.57;;;;;;;;;;8300929;28;20080;-88
2023/01/31 18:06:16;;;;;;;16.02;6.40;;;;;;;;;;8300670;28;20124;-88
2023/01/31 18:10:21;;;;;;;13.80;5.93;;;;;;;;;;8301132;28;20083;-90
2023/01/31 18:14:29;;;;;;;17.92;7.07;;;;;;;;;;8297737;28;20084;-92
2023/01/31 18:18:37;;;;;;;12.13;5.90;;;;;;;;;;8293483;28;20047;-91
2023/01/31 18:22:41;;;;;;;12.50;6.05;;;;;;;;;;8285489;28;20046;-89
2023/01/31 18:26:47;;;;;;;16.88;6.65;;;;;;;;;;8298072;28;20064;-90
2023/01/31 18:30:51;;;;;;;14.52;7.63;;;;;;;;;;8288517;28;20073;-89
2023/01/31 18:34:58;;;;;;;16.73;8.60;;;;;;;;;;8300022;28;20077;-92
2023/01/31 18:39:03;;;;;;;16.88;7.65;;;;;;;;;;8295850;28;20042;-89
2023/01/31 18:43:09;;;;;;;18.35;7.60;;;;;;;;;;8291195;28;20053;-89
2023/01/31 18:47:17;;;;;;;21.92;7.70;;;;;;;;;;8286463;28;20108;-90
2023/01/31 18:51:25;;;;;;;16.10;6.95;;;;;;;;;;8270672;28;20113;-88
2023/01/31 18:55:31;;;;;;;17.73;6.70;;;;;;;;;;8295718;28;20053;-90
2023/01/31 18:59:36;;;;;;;15.20;6.40;;;;;;;;;;8300918;28;20128;-89
2023/01/31 19:03:52;;;;;;;10.90;4.75;;;;;;;;;;8300862;28;20050;-92
2023/01/31 19:08:02;;;;;;;14.75;7.75;;;;;;;;;;8314851;28;20053;-89
2023/01/31 19:12:09;;;;;;;14.15;6.10;;;;;;;;;;8286495;28;20050;-92
2023/01/31 19:16:19;;;;;;;13.55;6.80;;;;;;;;;;8297205;28;20069;-89
2023/01/31 19:20:26;;;;;;;15.25;6.80;;;;;;;;;;8291112;28;20486;-86
2023/01/31 19:24:34;;;;;;;9.90;4.05;;;;;;;;;;8301381;28;20042;-87
2023/01/31 19:28:40;;;;;;;7.20;3.72;;;;;;;;;;8299319;28;20085;-89
2023/01/31 19:32:45;;;;;;;11.32;5.28;;;;;;;;;;8298403;28;20041;-88
2023/01/31 19:36:51;;;;;;;11.32;5.80;;;;;;;;;;8277208;28;20108;-91
2023/01/31 19:41:07;;;;;;;17.75;8.05;;;;;;;;;;8298305;28;20477;-90
2023/01/31 19:45:13;;;;;;;10.65;6.13;;;;;;;;;;8288725;28;20057;-89
2023/01/31 19:49:22;;;;;;;11.18;6.97;;;;;;;;;;8304614;28;20402;-90
2023/01/31 19:53:27;;;;;;;7.72;4.50;;;;;;;;;;8303815;28;20620;-89
2023/01/31 19:57:38;;;;;;;13.38;6.38;;;;;;;;;;8299035;28;20116;-92
2023/01/31 20:01:45;;;;;;;14.25;7.55;;;;;;;;;;8293046;28;20414;-89
2023/01/31 20:05:52;;;;;;;18.48;8.32;;;;;;;;;;8283474;28;20410;-90
2023/01/31 20:10:00;;;;;;;11.18;6.97;;;;;;;;;;8306246;28;20484;-89
2023/01/31 20:14:07;;;;;;;8.18;4.97;;;;;;;;;;8302413;28;20048;-89
2023/01/31 20:18:13;;;;;;;10.73;6.43;;;;;;;;;;8273050;28;20545;-90
2023/01/31 20:22:23;;;;;;;12.40;5.97;;;;;;;;;;8301169;28;20129;-88
2023/01/31 20:26:30;;;;;;;13.32;7.32;;;;;;;;;;8290713;28;20050;-87
2023/01/31 20:30:38;;;;;;;13.25;6.88;;;;;;;;;;8309497;28;20042;-86
2023/01/31 20:34:48;;;;;;;18.55;8.25;;;;;;;;;;8312185;28;20127;-91
2023/01/31 20:38:53;;;;;;;11.05;5.88;;;;;;;;;;8311128;28;20041;-88
2023/01/31 20:42:58;;;;;;;12.00;6.68;;;;;;;;;;8294441;28;20066;-87
2023/01/31 20:47:04;;;;;;;10.52;5.65;;;;;;;;;;8303007;28;20042;-88
2023/01/31 20:51:09;;;;;;;13.40;7.15;;;;;;;;;;8297683;28;20048;-87
2023/01/31 20:55:14;;;;;;;9.25;4.28;;;;;;;;;;8301449;28;20547;-87
2023/01/31 20:59:20;;;;;;;9.68;5.35;;;;;;;;;;8303891;28;20124;-90
2023/01/31 21:03:31;;;;;;;14.25;6.10;;;;;;;;;;8291338;28;20183;-88
2023/01/31 21:07:35;;;;;;;13.98;6.63;;;;;;;;;;8277647;28;20589;-88
2023/01/31 21:11:41;;;;;;;10.75;5.68;;;;;;;;;;8282316;28;20098;-89
2023/01/31 21:15:51;;;;;;;9.75;5.38;;;;;;;;;;8315569;28;20049;-90
2023/01/31 21:20:09;;;;;;;14.75;6.85;;;;;;;;;;8314648;28;20060;-88
2023/01/31 21:24:14;;;;;;;11.05;5.75;;;;;;;;;;8294495;28;20482;-87
2023/01/31 21:28:18;;;;;;;11.23;5.03;;;;;;;;;;8314332;28;20058;-88
2023/01/31 21:32:25;;;;;;;11.00;6.90;;;;;;;;;;8301028;28;20207;-87
2023/01/31 21:36:34;;;;;;;6.85;4.03;;;;;;;;;;8295452;28;20414;-89
2023/01/31 21:40:39;;;;;;;12.88;6.95;;;;;;;;;;8300489;28;20073;-87
2023/01/31 21:44:45;;;;;;;9.38;4.47;;;;;;;;;;8312618;28;20045;-87
2023/01/31 21:49:04;;;;;;;10.45;6.05;;;;;;;;;;8301275;28;20050;-87
2023/01/31 21:53:11;;;;;;;15.20;7.32;;;;;;;;;;8297109;28;20046;-90
2023/01/31 21:57:15;;;;;;;11.52;5.78;;;;;;;;;;8312435;28;20057;-89
2023/01/31 22:05:38;;;;;;;7.30;3.88;;;;;;;;;;8311237;28;20076;-86
2023/01/31 22:09:45;;;;;;;7.72;4.10;;;;;;;;;;8311588;28;20042;-90
2023/01/31 22:18:10;;;;;;;11.23;5.57;;;;;;;;;;8311850;28;20050;-91
2023/01/31 22:22:14;;;;;;;6.70;4.35;;;;;;;;;;8284899;28;20077;-89
2023/01/31 22:26:24;;;;;;;3.92;2.72;;;;;;;;;;8300054;28;20058;-89
2023/01/31 22:30:42;;;;;;;6.00;3.80;;;;;;;;;;8315710;28;20053;-91
2023/01/31 22:34:46;;;;;;;10.57;4.60;;;;;;;;;;8321560;28;20401;-90
2023/01/31 22:38:54;;;;;;;8.68;4.68;;;;;;;;;;8318971;28;20494;-91
2023/01/31 22:43:10;;;;;;;8.52;4.57;;;;;;;;;;8301065;28;20457;-90
2023/01/31 22:47:14;;;;;;;11.68;3.67;;;;;;;;;;8316674;28;20045;-90
2023/01/31 22:51:20;;;;;;;9.00;5.13;;;;;;;;;;8317892;28;20046;-90
2023/01/31 22:55:24;;;;;;;7.00;4.25;;;;;;;;;;8321394;28;20042;-88
2023/01/31 22:59:29;;;;;;;4.78;3.83;;;;;;;;;;8308340;28;20054;-91
2023/01/31 23:03:32;;;;;;;8.00;4.35;;;;;;;;;;8287441;28;20053;-90
2023/01/31 23:07:35;;;;;;;6.28;3.55;;;;;;;;;;8303196;28;20108;-91
2023/01/31 23:11:40;;;;;;;7.82;4.45;;;;;;;;;;8308390;28;20046;-90
2023/01/31 23:15:46;;;;;;;9.80;4.90;;;;;;;;;;8313698;28;20109;-90
2023/01/31 23:19:50;;;;;;;10.80;5.22;;;;;;;;;;8318788;28;20518;-88
2023/01/31 23:23:53;;;;;;;10.93;5.93;;;;;;;;;;8299207;28;20398;-89
2023/01/31 23:27:59;;;;;;;12.63;5.85;;;;;;;;;;8298710;28;20534;-89
2023/01/31 23:32:06;;;;;;;13.70;5.47;;;;;;;;;;8298642;28;20042;-90
2023/01/31 23:36:10;;;;;;;10.25;5.65;;;;;;;;;;8298755;28;20046;-90
2023/01/31 23:40:14;;;;;;;8.73;4.97;;;;;;;;;;8298546;28;20418;-89
2023/01/31 23:44:17;;;;;;;11.13;4.80;;;;;;;;;;8281735;28;20042;-89
2023/01/31 23:48:22;;;;;;;3.45;2.50;;;;;;;;;;8285603;28;20045;-88
2023/01/31 23:52:25;;;;;;;7.22;4.65;;;;;;;;;;8297999;28;20069;-90
2023/01/31 23:56:29;;;;;;;7.80;4.57;;;;;;;;;;8298234;28;20050;-87
